createdAt,value
2018-07-25T00:00:26.252Z,21.60
2018-07-25T00:02:54.418Z,20.23
2018-07-25T00:05:22.579Z,19.43
2018-07-25T00:07:50.757Z,20.70
2018-07-25T00:10:19.384Z,20.37
2018-07-25T00:12:47.541Z,21.27
2018-07-25T00:15:15.682Z,20.70
2018-07-25T00:17:43.862Z,20.50
2018-07-25T00:20:12.039Z,20.87
2018-07-25T00:22:40.210Z,20.50
2018-07-25T00:25:08.396Z,20.40
2018-07-25T00:27:36.787Z,20.57
2018-07-25T00:30:05.346Z,20.53
2018-07-25T00:32:33.503Z,21.73
2018-07-25T00:35:01.672Z,21.70
2018-07-25T00:40:12.130Z,23.57
2018-07-25T00:42:41.322Z,23.57
2018-07-25T00:45:09.617Z,24.70
2018-07-25T00:47:37.763Z,23.83
2018-07-25T00:50:05.930Z,23.37
2018-07-25T00:52:34.079Z,21.47
2018-07-25T00:55:02.299Z,22.17
2018-07-25T00:57:30.455Z,24.10
2018-07-25T00:59:58.620Z,23.10
2018-07-25T01:02:26.835Z,21.80
2018-07-25T01:04:54.996Z,22.60
2018-07-25T01:07:24.089Z,20.63
2018-07-25T01:09:52.273Z,20.77
2018-07-25T01:12:20.469Z,18.03
2018-07-25T01:14:48.630Z,19.27
2018-07-25T01:17:16.803Z,20.23
2018-07-25T01:19:45.075Z,20.47
2018-07-25T01:22:13.227Z,21.00
2018-07-25T01:24:41.406Z,21.27
2018-07-25T01:27:09.634Z,21.63
2018-07-25T01:29:37.816Z,20.87
2018-07-25T01:32:06.043Z,20.53
2018-07-25T01:34:35.245Z,20.80
2018-07-25T01:37:03.431Z,21.87
2018-07-25T01:39:31.864Z,22.00
2018-07-25T01:42:00.021Z,22.07
2018-07-25T01:44:28.176Z,21.00
2018-07-25T01:46:56.455Z,21.67
2018-07-25T01:49:24.608Z,20.77
2018-07-25T01:51:52.778Z,19.70
2018-07-25T01:54:20.949Z,21.53
2018-07-25T01:56:49.106Z,20.67
2018-07-25T01:59:17.275Z,21.23
2018-07-25T02:01:45.431Z,22.17
2018-07-25T02:04:13.648Z,20.83
2018-07-25T02:06:41.818Z,22.13
2018-07-25T02:09:10.720Z,22.13
2018-07-25T02:11:38.902Z,22.57
2018-07-25T02:14:07.122Z,21.23
2018-07-25T02:16:35.375Z,22.83
2018-07-25T02:19:03.562Z,22.17
2018-07-25T02:21:31.731Z,21.00
2018-07-25T02:23:59.908Z,21.53
2018-07-25T02:26:28.050Z,21.73
2018-07-25T02:28:56.211Z,20.20
2018-07-25T02:31:24.379Z,21.23
2018-07-25T02:33:57.960Z,22.37
2018-07-25T02:36:26.124Z,22.00
2018-07-25T02:38:54.277Z,21.47
2018-07-25T02:41:22.464Z,21.10
2018-07-25T02:43:50.673Z,20.90
2018-07-25T02:46:18.961Z,20.33
2018-07-25T02:48:47.144Z,21.40
2018-07-25T02:51:15.348Z,22.53
2018-07-25T02:53:43.519Z,21.50
2018-07-25T02:56:11.720Z,21.73
2018-07-25T02:58:39.869Z,22.47
2018-07-25T03:01:08.032Z,22.07
2018-07-25T03:03:36.196Z,22.67
2018-07-25T03:06:04.361Z,23.17
2018-07-25T03:08:32.539Z,23.57
2018-07-25T03:11:00.695Z,22.97
2018-07-25T03:13:28.869Z,23.07
2018-07-25T03:16:04.018Z,23.53
2018-07-25T03:18:32.323Z,23.00
2018-07-25T03:21:01.168Z,23.77
2018-07-25T03:23:30.180Z,23.23
2018-07-25T03:25:58.356Z,23.50
2018-07-25T03:28:27.231Z,22.77
2018-07-25T03:30:55.465Z,23.23
2018-07-25T03:33:24.499Z,22.97
2018-07-25T03:35:52.772Z,23.70
2018-07-25T03:38:20.956Z,22.10
2018-07-25T03:40:49.412Z,22.37
2018-07-25T03:43:17.587Z,21.50
2018-07-25T03:45:46.212Z,22.20
2018-07-25T03:48:14.439Z,22.23
2018-07-25T03:50:42.643Z,23.43
2018-07-25T03:53:10.831Z,22.60
2018-07-25T03:55:39.102Z,23.13
2018-07-25T03:58:07.478Z,23.87
2018-07-25T04:00:35.763Z,23.97
2018-07-25T04:03:03.928Z,25.23
2018-07-25T04:05:32.084Z,24.27
2018-07-25T04:08:00.293Z,25.57
2018-07-25T04:10:28.471Z,25.90
2018-07-25T04:12:56.639Z,26.43
2018-07-25T04:15:24.833Z,25.60
2018-07-25T04:17:53.013Z,25.63
2018-07-25T04:20:21.195Z,24.87
2018-07-25T04:22:49.362Z,25.23
2018-07-25T04:25:17.580Z,25.33
2018-07-25T04:27:46.474Z,24.50
2018-07-25T04:30:15.876Z,23.97
2018-07-25T04:32:44.681Z,24.60
2018-07-25T04:35:14.071Z,23.67
2018-07-25T04:37:42.868Z,24.73
2018-07-25T04:40:11.073Z,24.00
2018-07-25T04:42:39.336Z,23.87
2018-07-25T04:45:09.211Z,24.53
2018-07-25T04:47:37.430Z,25.13
2018-07-25T04:50:05.736Z,26.17
2018-07-25T04:52:34.191Z,24.73
2018-07-25T04:55:02.468Z,23.50
2018-07-25T04:57:30.675Z,22.87
2018-07-25T04:59:59.107Z,22.43
2018-07-25T05:02:27.372Z,23.17
2018-07-25T05:04:55.582Z,22.40
2018-07-25T05:07:23.767Z,22.60
2018-07-25T05:09:51.944Z,23.47
2018-07-25T05:12:20.154Z,23.63
2018-07-25T05:14:48.356Z,22.23
2018-07-25T05:17:16.580Z,20.93
2018-07-25T05:19:44.787Z,22.77
2018-07-25T05:22:12.979Z,22.23
2018-07-25T05:24:41.195Z,23.77
2018-07-25T05:27:09.404Z,24.77
2018-07-25T05:29:37.576Z,21.00
2018-07-25T05:32:05.846Z,23.43
2018-07-25T05:34:34.042Z,20.43
2018-07-25T05:37:02.238Z,24.50
2018-07-25T05:39:30.472Z,22.83
2018-07-25T05:41:58.658Z,23.50
2018-07-25T05:44:26.876Z,21.33
2018-07-25T05:46:55.057Z,22.03
2018-07-25T05:49:23.283Z,20.70
2018-07-25T05:51:51.473Z,19.90
2018-07-25T05:54:19.660Z,22.17
2018-07-25T05:56:47.889Z,21.83
2018-07-25T05:59:16.069Z,21.83
2018-07-25T06:01:44.539Z,21.93
2018-07-25T06:04:12.774Z,23.53
2018-07-25T06:06:40.966Z,22.33
2018-07-25T06:09:10.134Z,22.47
2018-07-25T06:11:38.895Z,22.07
2018-07-25T06:14:07.141Z,22.03
2018-07-25T06:16:35.546Z,23.10
2018-07-25T06:19:03.744Z,21.67
2018-07-25T06:21:32.097Z,22.40
2018-07-25T06:24:00.026Z,21.63
2018-07-25T06:26:28.203Z,22.43
2018-07-25T06:28:56.394Z,21.70
2018-07-25T06:31:24.596Z,22.13
2018-07-25T06:33:52.786Z,22.03
2018-07-25T06:36:21.063Z,21.73
2018-07-25T06:38:49.238Z,21.77
2018-07-25T06:41:17.772Z,22.33
2018-07-25T06:43:46.074Z,20.80
2018-07-25T06:46:14.264Z,22.37
2018-07-25T06:48:42.476Z,19.47
2018-07-25T06:51:10.636Z,20.83
2018-07-25T06:53:39.266Z,19.83
2018-07-25T06:56:10.853Z,18.73
2018-07-25T06:58:41.700Z,18.60
2018-07-25T07:01:13.452Z,19.40
2018-07-25T07:03:41.635Z,18.70
2018-07-25T07:06:09.799Z,19.23
2018-07-25T07:08:37.981Z,18.73
2018-07-25T07:11:06.240Z,17.67
2018-07-25T07:13:34.443Z,17.60
2018-07-25T07:16:02.605Z,18.20
2018-07-25T07:18:30.759Z,17.77
2018-07-25T07:20:58.999Z,18.07
2018-07-25T07:23:27.174Z,17.77
2018-07-25T07:25:55.386Z,16.77
2018-07-25T07:28:23.543Z,16.40
2018-07-25T07:30:51.731Z,16.10
2018-07-25T07:33:19.916Z,16.30
2018-07-25T07:35:48.113Z,15.93
2018-07-25T07:38:16.321Z,16.55
2018-07-25T07:40:44.507Z,18.12
2018-07-25T07:43:12.705Z,16.62
2018-07-25T07:45:40.892Z,16.35
2018-07-25T07:48:09.112Z,16.15
2018-07-25T07:50:37.295Z,16.35
2018-07-25T07:53:05.598Z,15.15
2018-07-25T07:55:33.811Z,15.32
2018-07-25T07:58:01.985Z,15.40
2018-07-25T08:00:30.165Z,15.25
2018-07-25T08:02:58.373Z,13.72
2018-07-25T08:05:26.562Z,12.95
2018-07-25T08:07:54.783Z,13.30
2018-07-25T08:10:23.115Z,14.25
2018-07-25T08:12:51.361Z,15.13
2018-07-25T08:15:19.611Z,14.38
2018-07-25T08:17:47.845Z,13.45
2018-07-25T08:20:16.064Z,14.00
2018-07-25T08:22:44.250Z,13.25
2018-07-25T08:25:12.431Z,14.23
2018-07-25T08:27:40.655Z,13.22
2018-07-25T08:30:08.964Z,12.68
2018-07-25T08:32:37.193Z,14.47
2018-07-25T08:35:05.395Z,12.70
2018-07-25T08:37:33.602Z,13.00
2018-07-25T08:40:01.928Z,12.28
2018-07-25T08:42:30.317Z,14.05
2018-07-25T08:44:58.539Z,12.30
2018-07-25T08:47:26.723Z,11.78
2018-07-25T08:49:54.916Z,12.53
2018-07-25T08:52:23.187Z,12.98
2018-07-25T08:54:51.449Z,12.45
2018-07-25T08:57:19.795Z,11.43
2018-07-25T08:59:47.993Z,12.68
2018-07-25T09:02:16.191Z,10.72
2018-07-25T09:04:44.463Z,10.98
2018-07-25T09:07:12.736Z,10.63
2018-07-25T09:09:40.959Z,10.78
2018-07-25T09:12:09.113Z,10.60
2018-07-25T09:14:37.364Z,9.80
2018-07-25T09:17:05.609Z,10.40
2018-07-25T09:19:33.779Z,10.50
2018-07-25T09:22:02.175Z,10.40
2018-07-25T09:24:30.475Z,10.20
2018-07-25T09:26:58.652Z,9.48
2018-07-25T09:29:26.857Z,9.55
2018-07-25T09:31:54.820Z,9.40
2018-07-25T09:34:23.084Z,9.65
2018-07-25T09:36:51.203Z,8.35
2018-07-25T09:39:19.383Z,9.25
2018-07-25T09:41:47.588Z,8.33
2018-07-25T09:44:15.787Z,8.35
2018-07-25T09:46:44.199Z,8.05
2018-07-25T09:49:12.711Z,8.03
2018-07-25T09:51:42.385Z,8.10
2018-07-25T09:54:10.591Z,7.50
2018-07-25T09:56:39.032Z,7.72
2018-07-25T09:59:07.313Z,7.40
2018-07-25T10:01:35.485Z,9.25
2018-07-25T10:04:03.663Z,7.55
2018-07-25T10:06:31.827Z,7.40
2018-07-25T10:09:00.011Z,7.85
2018-07-25T10:11:28.167Z,8.50
2018-07-25T10:13:56.515Z,7.42
2018-07-25T10:16:24.689Z,7.65
2018-07-25T10:18:52.989Z,6.92
2018-07-25T10:21:21.275Z,7.12
2018-07-25T10:23:49.460Z,7.05
2018-07-25T10:26:17.635Z,7.05
2018-07-25T10:28:45.791Z,7.20
2018-07-25T10:31:13.990Z,7.67
2018-07-25T10:33:42.151Z,7.28
2018-07-25T10:36:10.307Z,6.92
2018-07-25T10:38:39.223Z,6.92
2018-07-25T10:41:07.415Z,6.80
2018-07-25T10:43:36.196Z,8.45
2018-07-25T10:46:04.866Z,6.78
2018-07-25T10:48:33.062Z,7.05
2018-07-25T10:51:01.217Z,7.20
2018-07-25T10:53:29.418Z,6.42
2018-07-25T10:55:57.606Z,7.03
2018-07-25T10:58:25.746Z,6.60
2018-07-25T11:00:53.703Z,7.08
2018-07-25T11:03:21.870Z,7.00
2018-07-25T11:05:50.070Z,6.90
2018-07-25T11:08:18.252Z,7.15
2018-07-25T11:10:47.828Z,7.40
2018-07-25T11:13:16.004Z,7.15
2018-07-25T11:15:44.149Z,6.97
2018-07-25T11:18:12.433Z,7.30
2018-07-25T11:20:40.635Z,7.12
2018-07-25T11:23:08.861Z,8.55
2018-07-25T11:25:37.014Z,7.05
2018-07-25T11:28:05.258Z,6.70
2018-07-25T11:30:33.516Z,6.50
2018-07-25T11:33:01.698Z,6.10
2018-07-25T11:35:30.154Z,6.92
2018-07-25T11:37:58.386Z,6.55
2018-07-25T11:40:26.546Z,6.03
2018-07-25T11:42:54.764Z,5.92
2018-07-25T11:45:23.057Z,6.67
2018-07-25T11:47:51.250Z,6.87
2018-07-25T11:50:19.686Z,6.15
2018-07-25T11:52:47.885Z,7.37
2018-07-25T11:55:17.662Z,5.90
2018-07-25T11:57:47.119Z,6.33
2018-07-25T12:00:15.332Z,5.85
2018-07-25T12:02:43.645Z,6.75
2018-07-25T12:05:11.987Z,6.30
2018-07-25T12:07:40.303Z,5.78
2018-07-25T12:10:08.605Z,6.17
2018-07-25T12:12:36.812Z,5.92
2018-07-25T12:15:06.927Z,6.33
2018-07-25T12:17:35.115Z,6.17
2018-07-25T12:20:03.297Z,6.10
2018-07-25T12:22:31.829Z,5.92
2018-07-25T12:25:00.088Z,6.12
2018-07-25T12:27:28.244Z,6.05
2018-07-25T12:29:56.451Z,6.33
2018-07-25T12:32:24.630Z,5.85
2018-07-25T12:34:52.823Z,6.17
2018-07-25T12:37:20.774Z,6.03
2018-07-25T12:39:49.119Z,5.70
2018-07-25T12:42:17.312Z,5.92
2018-07-25T12:44:45.476Z,5.90
2018-07-25T12:47:13.669Z,5.80
2018-07-25T12:49:42.175Z,5.40
2018-07-25T12:52:10.422Z,5.65
2018-07-25T12:54:39.003Z,5.90
2018-07-25T12:57:07.180Z,7.03
2018-07-25T12:59:35.352Z,6.67
2018-07-25T13:02:03.593Z,5.72
2018-07-25T13:04:31.727Z,6.05
2018-07-25T13:06:59.887Z,7.87
2018-07-25T13:09:28.180Z,5.65
2018-07-25T13:11:56.387Z,5.62
2018-07-25T13:14:40.427Z,10.60
2018-07-25T13:17:08.569Z,5.60
2018-07-25T13:19:36.777Z,5.70
2018-07-25T13:22:04.968Z,5.97
2018-07-25T13:24:33.263Z,5.70
2018-07-25T13:27:01.419Z,6.25
2018-07-25T13:29:29.582Z,6.60
2018-07-25T13:31:57.736Z,5.80
2018-07-25T13:34:26.232Z,5.92
2018-07-25T13:36:54.405Z,5.80
2018-07-25T13:39:22.688Z,6.33
2018-07-25T13:41:50.882Z,6.05
2018-07-25T13:44:19.078Z,7.45
2018-07-25T13:46:47.309Z,5.70
2018-07-25T13:49:15.571Z,6.00
2018-07-25T13:51:43.767Z,5.67
2018-07-25T13:54:11.976Z,5.53
2018-07-25T13:56:40.145Z,5.53
2018-07-25T13:59:08.536Z,5.37
2018-07-25T14:01:36.803Z,5.80
2018-07-25T14:04:04.985Z,5.62
2018-07-25T14:06:33.150Z,5.67
2018-07-25T14:09:01.339Z,5.33
2018-07-25T14:11:29.745Z,5.17
2018-07-25T14:13:57.895Z,4.53
2018-07-25T14:16:26.151Z,4.03
2018-07-25T14:18:54.308Z,3.80
2018-07-25T14:21:22.491Z,4.20
2018-07-25T14:23:50.782Z,4.15
2018-07-25T14:26:18.900Z,5.10
2018-07-25T14:28:47.168Z,5.00
2018-07-25T14:31:15.288Z,4.55
2018-07-25T14:33:43.468Z,4.92
2018-07-25T14:36:12.498Z,4.78
2018-07-25T14:38:40.757Z,5.08
2018-07-25T14:41:08.972Z,4.67
2018-07-25T14:43:37.389Z,4.47
2018-07-25T14:46:06.023Z,4.33
2018-07-25T14:48:34.267Z,4.42
2018-07-25T14:51:03.046Z,4.55
2018-07-25T14:53:31.248Z,5.28
2018-07-25T14:55:59.456Z,4.92
2018-07-25T14:58:27.668Z,4.85
2018-07-25T15:00:55.865Z,5.12
2018-07-25T15:03:24.146Z,4.85
2018-07-25T15:05:52.374Z,4.58
2018-07-25T15:08:20.576Z,5.30
2018-07-25T15:10:48.835Z,5.30
2018-07-25T15:13:17.085Z,4.60
2018-07-25T15:15:45.272Z,5.50
2018-07-25T15:18:13.499Z,5.42
2018-07-25T15:20:41.703Z,4.75
2018-07-25T15:23:09.876Z,4.75
2018-07-25T15:25:38.067Z,4.80
2018-07-25T15:28:06.251Z,4.97
2018-07-25T15:30:34.448Z,5.03
2018-07-25T15:33:03.107Z,5.15
2018-07-25T15:35:31.292Z,5.12
2018-07-25T15:37:59.548Z,5.28
2018-07-25T15:40:27.725Z,5.80
2018-07-25T15:42:55.902Z,6.62
2018-07-25T15:45:24.152Z,6.17
2018-07-25T15:47:52.411Z,6.33
2018-07-25T15:50:20.706Z,6.03
2018-07-25T15:52:48.923Z,6.00
2018-07-25T15:55:17.097Z,7.42
2018-07-25T15:57:45.489Z,6.12
2018-07-25T16:00:13.719Z,8.03
2018-07-25T16:02:41.921Z,6.37
2018-07-25T16:05:10.139Z,6.40
2018-07-25T16:07:38.339Z,6.22
2018-07-25T16:10:06.530Z,6.80
2018-07-25T16:12:34.819Z,6.80
2018-07-25T16:15:02.988Z,7.00
2018-07-25T16:17:31.179Z,6.40
2018-07-25T16:19:59.411Z,6.97
2018-07-25T16:22:28.763Z,7.75
2018-07-25T16:24:56.946Z,6.75
2018-07-25T16:27:25.160Z,6.87
2018-07-25T16:52:27.913Z,6.97
2018-07-25T16:54:56.298Z,8.20
2018-07-25T16:57:24.511Z,7.47
2018-07-25T16:59:52.678Z,7.15
2018-07-25T17:02:21.248Z,15.93
2018-07-25T17:04:49.459Z,17.77
2018-07-25T17:07:17.639Z,27.98
2018-07-25T17:09:46.375Z,8.38
2018-07-25T17:12:14.613Z,7.37
2018-07-25T17:14:42.787Z,8.60
2018-07-25T17:17:10.948Z,8.88
2018-07-25T17:19:39.152Z,8.40
2018-07-25T17:22:07.320Z,38.00
2018-07-25T17:24:35.514Z,14.80
2018-07-25T17:27:03.688Z,8.93
2018-07-25T17:29:31.854Z,8.45
2018-07-25T17:32:00.035Z,8.10
2018-07-25T17:34:28.193Z,8.58
2018-07-25T17:36:56.411Z,11.50
2018-07-25T17:39:24.676Z,8.63
2018-07-25T17:41:52.845Z,7.47
2018-07-25T17:44:21.048Z,7.35
2018-07-25T17:46:49.281Z,6.87
2018-07-25T17:49:17.429Z,7.40
2018-07-25T17:51:45.625Z,7.45
2018-07-25T17:54:13.918Z,6.22
2018-07-25T17:56:42.088Z,6.40
2018-07-25T17:59:10.427Z,6.47
2018-07-25T18:01:38.592Z,7.55
2018-07-25T18:04:06.791Z,7.10
2018-07-25T18:06:35.160Z,6.15
2018-07-25T18:09:03.597Z,5.85
2018-07-25T18:11:31.832Z,5.75
2018-07-25T18:14:05.394Z,5.62
2018-07-25T18:16:33.551Z,5.30
2018-07-25T18:19:01.781Z,6.08
2018-07-25T18:21:29.974Z,6.05
2018-07-25T18:23:58.118Z,6.25
2018-07-25T18:26:26.287Z,5.97
2018-07-25T18:28:54.548Z,5.80
2018-07-25T18:31:22.755Z,7.50
2018-07-25T18:33:50.943Z,5.72
2018-07-25T18:36:19.132Z,5.53
2018-07-25T18:38:47.327Z,5.85
2018-07-25T18:41:15.470Z,6.00
2018-07-25T18:43:43.640Z,6.72
2018-07-25T18:46:11.805Z,5.87
2018-07-25T18:48:40.139Z,6.55
2018-07-25T18:51:08.295Z,6.47
2018-07-25T18:53:37.305Z,6.08
2018-07-25T18:56:05.601Z,6.70
2018-07-25T18:58:33.815Z,5.45
2018-07-25T19:01:02.029Z,5.87
2018-07-25T19:03:30.264Z,6.03
2018-07-25T19:05:58.456Z,6.20
2018-07-25T19:08:26.823Z,6.03
2018-07-25T19:10:55.016Z,6.20
2018-07-25T19:13:28.779Z,6.80
2018-07-25T19:15:57.023Z,6.30
2018-07-25T19:18:25.176Z,7.25
2018-07-25T19:20:54.788Z,6.20
2018-07-25T19:23:22.929Z,7.35
2018-07-25T19:25:52.932Z,6.73
2018-07-25T19:28:21.226Z,6.23
2018-07-25T19:30:49.840Z,7.13
2018-07-25T19:33:17.989Z,6.63
2018-07-25T19:35:46.172Z,7.20
2018-07-25T19:38:14.420Z,7.23
2018-07-25T19:40:42.684Z,7.70
2018-07-25T19:43:10.887Z,7.63
2018-07-25T19:45:39.058Z,8.50
2018-07-25T19:48:07.232Z,8.40
2018-07-25T19:50:35.372Z,9.67
2018-07-25T19:53:03.584Z,8.90
2018-07-25T19:55:31.775Z,9.40
2018-07-25T19:58:00.042Z,10.67
2018-07-25T20:00:28.386Z,9.57
2018-07-25T20:02:56.527Z,10.53
2018-07-25T20:05:24.750Z,9.30
2018-07-25T20:07:53.068Z,9.50
2018-07-25T20:10:21.339Z,9.00
2018-07-25T20:12:49.749Z,8.70
2018-07-25T20:15:23.127Z,8.57
2018-07-25T20:17:51.095Z,8.10
2018-07-25T20:20:19.360Z,8.90
2018-07-25T20:22:47.584Z,9.33
2018-07-25T20:25:16.145Z,9.30
2018-07-25T20:27:44.403Z,9.83
2018-07-25T20:30:12.847Z,10.03
2018-07-25T20:32:41.227Z,10.20
2018-07-25T20:35:09.576Z,12.00
2018-07-25T20:37:37.887Z,18.13
2018-07-25T20:40:06.635Z,19.20
2018-07-25T20:42:34.910Z,17.43
2018-07-25T20:45:03.234Z,13.03
2018-07-25T20:47:31.205Z,11.43
2018-07-25T20:49:59.483Z,11.20
2018-07-25T20:52:27.760Z,11.07
2018-07-25T20:54:56.175Z,10.43
2018-07-25T20:57:24.466Z,10.50
2018-07-25T20:59:52.651Z,10.37
2018-07-25T21:02:20.965Z,10.20
2018-07-25T21:04:49.220Z,11.17
2018-07-25T21:07:17.347Z,10.57
2018-07-25T21:09:45.615Z,10.40
2018-07-25T21:12:13.847Z,10.53
2018-07-25T21:14:42.162Z,10.63
2018-07-25T21:17:10.545Z,11.40
2018-07-25T21:19:45.508Z,10.93
2018-07-25T21:22:13.757Z,11.30
2018-07-25T21:24:42.068Z,11.00
2018-07-25T21:27:10.387Z,12.23
2018-07-25T21:29:38.673Z,12.13
2018-07-25T21:32:06.914Z,11.30
2018-07-25T21:34:35.435Z,12.10
2018-07-25T21:37:03.778Z,11.53
2018-07-25T21:39:32.126Z,11.40
2018-07-25T21:42:00.508Z,11.63
2018-07-25T21:44:28.812Z,11.67
2018-07-25T21:46:57.079Z,12.50
2018-07-25T21:49:25.551Z,12.70
2018-07-25T21:51:54.064Z,12.40
2018-07-25T21:54:22.367Z,11.33
2018-07-25T21:56:50.557Z,13.07
2018-07-25T21:59:19.003Z,12.47
2018-07-25T22:01:47.313Z,12.43
2018-07-25T22:04:15.480Z,11.70
2018-07-25T22:06:43.656Z,12.03
2018-07-25T22:09:12.466Z,12.50
2018-07-25T22:11:41.125Z,11.53
2018-07-25T22:14:09.107Z,11.70
2018-07-25T22:16:37.297Z,12.70
2018-07-25T22:19:05.591Z,12.73
2018-07-25T22:21:33.854Z,12.57
2018-07-25T22:24:02.176Z,12.17
2018-07-25T22:26:30.343Z,12.00
2018-07-25T22:28:58.533Z,12.23
2018-07-25T22:31:26.462Z,12.33
2018-07-25T22:33:54.639Z,12.33
2018-07-25T22:36:22.830Z,12.27
2018-07-25T22:38:51.049Z,12.70
2018-07-25T22:41:19.221Z,12.40
2018-07-25T22:43:47.434Z,13.33
2018-07-25T22:46:15.656Z,13.17
2018-07-25T22:48:43.852Z,12.73
2018-07-25T22:51:12.041Z,12.87
2018-07-25T22:53:40.232Z,12.90
2018-07-25T22:56:08.422Z,13.30
2018-07-25T22:58:36.353Z,13.67
2018-07-25T23:01:04.543Z,12.83
2018-07-25T23:03:32.755Z,13.60
2018-07-25T23:06:00.960Z,13.63
2018-07-25T23:08:29.167Z,13.57
2018-07-25T23:10:57.370Z,13.90
2018-07-25T23:13:25.564Z,14.07
2018-07-25T23:15:53.772Z,13.70
2018-07-25T23:18:21.955Z,13.00
2018-07-25T23:20:50.119Z,13.70
2018-07-25T23:23:18.300Z,14.83
2018-07-25T23:25:46.470Z,14.63
2018-07-25T23:28:14.655Z,14.23
2018-07-25T23:30:42.814Z,14.93
2018-07-25T23:33:11.033Z,14.63
2018-07-25T23:35:39.184Z,14.87
2018-07-25T23:38:07.712Z,16.10
2018-07-25T23:40:35.884Z,15.93
2018-07-25T23:43:04.051Z,18.03
2018-07-25T23:45:32.235Z,17.93
2018-07-25T23:48:00.401Z,18.57
2018-07-25T23:50:28.587Z,19.97
2018-07-25T23:52:56.783Z,18.90
2018-07-25T23:55:24.943Z,19.80
2018-07-25T23:57:53.113Z,19.60
